createdAt,value
2023-08-01T00:00:25.048Z,86.28
2023-08-01T00:03:48.989Z,85.31
2023-08-01T00:06:51.521Z,84.94
2023-08-01T00:09:54.326Z,84.80
2023-08-01T00:12:56.863Z,86.29
2023-08-01T00:19:05.425Z,83.49
2023-08-01T00:22:08.707Z,82.44
2023-08-01T00:25:11.633Z,82.76
2023-08-01T00:28:14.887Z,82.31
2023-08-01T00:31:17.697Z,82.98
2023-08-01T00:34:20.631Z,81.97
2023-08-01T00:37:23.162Z,82.20
2023-08-01T00:40:34.506Z,81.66
2023-08-01T00:43:37.225Z,82.04
2023-08-01T00:46:40.662Z,81.79
2023-08-01T00:49:45.461Z,81.72
2023-08-01T00:52:49.281Z,80.50
2023-08-01T00:55:54.788Z,80.60
2023-08-01T00:58:57.744Z,80.77
2023-08-01T01:02:01.521Z,80.50
2023-08-01T01:05:04.864Z,79.92
2023-08-01T01:08:08.222Z,80.89
2023-08-01T01:11:11.377Z,80.36
2023-08-01T01:14:14.593Z,80.40
2023-08-01T01:17:19.129Z,79.81
2023-08-01T01:20:25.804Z,80.11
2023-08-01T01:23:29.597Z,80.38
2023-08-01T01:26:33.781Z,80.29
2023-08-01T01:29:38.621Z,79.51
2023-08-01T01:32:41.181Z,78.80
2023-08-01T01:35:43.992Z,78.78
2023-08-01T01:38:46.593Z,78.86
2023-08-01T01:41:49.473Z,79.85
2023-08-01T01:44:52.008Z,80.10
2023-08-01T01:47:55.159Z,79.67
2023-08-01T01:50:57.619Z,81.36
2023-08-01T01:54:00.447Z,80.33
2023-08-01T01:57:03.067Z,80.05
2023-08-01T02:00:06.814Z,79.87
2023-08-01T02:03:15.201Z,80.04
2023-08-01T02:06:17.985Z,80.01
2023-08-01T02:09:20.502Z,79.03
2023-08-01T02:12:23.538Z,78.99
2023-08-01T02:15:26.065Z,79.38
2023-08-01T02:18:28.873Z,79.85
2023-08-01T02:21:31.337Z,79.27
2023-08-01T02:24:34.084Z,79.23
2023-08-01T02:27:36.477Z,80.14
2023-08-01T02:30:39.257Z,79.52
2023-08-01T02:33:41.834Z,79.40
2023-08-01T02:36:44.704Z,79.89
2023-08-01T02:39:48.084Z,79.70
2023-08-01T02:42:50.977Z,79.57
2023-08-01T02:45:53.367Z,80.13
2023-08-01T02:48:56.133Z,80.51
2023-08-01T02:51:58.597Z,81.32
2023-08-01T02:55:01.565Z,80.47
2023-08-01T02:58:03.956Z,80.67
2023-08-01T03:01:11.867Z,80.94
2023-08-01T03:04:14.518Z,81.23
2023-08-01T03:07:17.346Z,81.12
2023-08-01T03:10:30.915Z,80.31
2023-08-01T03:13:39.416Z,81.22
2023-08-01T03:16:42.235Z,81.29
2023-08-01T03:19:45.302Z,81.04
2023-08-01T03:22:47.747Z,80.89
2023-08-01T03:25:50.422Z,80.58
2023-08-01T03:28:52.899Z,81.88
2023-08-01T03:31:55.869Z,80.84
2023-08-01T03:34:58.321Z,80.58
2023-08-01T03:38:01.202Z,79.77
2023-08-01T03:41:05.340Z,80.21
2023-08-01T03:44:08.185Z,80.38
2023-08-01T03:47:10.666Z,79.18
2023-08-01T03:50:15.182Z,79.64
2023-08-01T03:53:17.605Z,78.90
2023-08-01T03:56:20.387Z,79.04
2023-08-01T03:59:22.750Z,78.72
2023-08-01T04:02:25.484Z,78.87
2023-08-01T04:05:31.584Z,78.67
2023-08-01T04:08:34.349Z,78.67
2023-08-01T04:11:36.886Z,78.41
2023-08-01T04:14:39.648Z,77.34
2023-08-01T04:17:42.156Z,78.19
2023-08-01T04:20:45.295Z,78.34
2023-08-01T04:23:47.698Z,76.74
2023-08-01T04:26:50.470Z,78.08
2023-08-01T04:29:53.046Z,78.39
2023-08-01T04:32:55.948Z,77.24
2023-08-01T04:35:58.411Z,77.48
2023-08-01T04:39:01.059Z,76.54
2023-08-01T04:42:03.781Z,77.25
2023-08-01T04:45:08.330Z,76.99
2023-08-01T04:48:12.172Z,76.62
2023-08-01T04:51:15.046Z,76.10
2023-08-01T04:54:17.735Z,75.32
2023-08-01T04:57:20.516Z,75.07
2023-08-01T05:00:22.848Z,75.51
2023-08-01T05:03:25.971Z,74.30
2023-08-01T05:06:29.407Z,71.97
2023-08-01T05:09:32.235Z,73.88
2023-08-01T05:12:34.706Z,71.14
2023-08-01T05:15:37.484Z,70.94
2023-08-01T05:18:39.958Z,71.15
2023-08-01T05:21:42.677Z,71.06
2023-08-01T05:24:45.590Z,70.26
2023-08-01T05:27:48.716Z,71.08
2023-08-01T05:30:51.193Z,70.83
2023-08-01T05:33:53.977Z,70.27
2023-08-01T05:36:56.597Z,70.27
2023-08-01T05:39:59.401Z,71.85
2023-08-01T05:43:02.749Z,71.45
2023-08-01T05:46:05.729Z,70.56
2023-08-01T05:49:09.503Z,72.15
2023-08-01T05:52:12.473Z,72.04
2023-08-01T05:55:15.001Z,71.08
2023-08-01T05:58:17.936Z,70.65
2023-08-01T06:01:21.059Z,70.59
2023-08-01T06:04:23.966Z,70.89
2023-08-01T06:07:26.655Z,71.94
2023-08-01T06:10:29.514Z,71.73
2023-08-01T06:13:31.949Z,71.44
2023-08-01T06:16:34.822Z,70.93
2023-08-01T06:19:37.348Z,71.41
2023-08-01T06:22:40.260Z,70.11
2023-08-01T06:25:43.127Z,70.06
2023-08-01T06:28:46.012Z,69.54
2023-08-01T06:31:48.469Z,69.77
2023-08-01T06:34:51.344Z,70.39
2023-08-01T06:37:53.864Z,70.12
2023-08-01T06:40:56.704Z,68.90
2023-08-01T06:43:59.236Z,68.55
2023-08-01T06:47:02.128Z,70.02
2023-08-01T06:50:06.190Z,69.58
2023-08-01T06:53:09.724Z,69.69
2023-08-01T06:56:12.217Z,68.54
2023-08-01T06:59:16.169Z,68.87
2023-08-01T07:02:18.622Z,68.52
2023-08-01T07:05:21.789Z,68.33
2023-08-01T07:08:24.906Z,67.76
2023-08-01T07:11:27.838Z,67.19
2023-08-01T07:14:30.319Z,65.24
2023-08-01T07:17:33.031Z,65.09
2023-08-01T07:20:35.678Z,64.74
2023-08-01T07:23:38.437Z,66.54
2023-08-01T07:26:41.089Z,64.47
2023-08-01T07:29:44.043Z,66.21
2023-08-01T07:32:46.735Z,63.34
2023-08-01T07:35:49.534Z,63.60
2023-08-01T07:38:51.980Z,63.09
2023-08-01T07:41:54.864Z,63.69
2023-08-01T07:44:57.471Z,62.92
2023-08-01T07:48:00.339Z,63.25
2023-08-01T07:51:02.855Z,63.66
2023-08-01T07:54:05.654Z,64.08
2023-08-01T07:57:08.227Z,61.66
2023-08-01T08:00:12.684Z,61.69
2023-08-01T08:03:18.201Z,62.19
2023-08-01T08:06:22.584Z,59.78
2023-08-01T08:09:25.167Z,61.71
2023-08-01T08:12:27.992Z,62.11
2023-08-01T08:15:34.922Z,61.44
2023-08-01T08:18:37.700Z,61.17
2023-08-01T08:21:40.252Z,60.37
2023-08-01T08:24:43.067Z,62.26
2023-08-01T08:27:45.539Z,62.07
2023-08-01T08:30:48.320Z,62.07
2023-08-01T08:33:50.917Z,62.09
2023-08-01T08:36:53.831Z,61.87
2023-08-01T08:39:56.361Z,60.64
2023-08-01T08:43:03.087Z,61.93
2023-08-01T08:46:06.941Z,61.08
2023-08-01T08:49:10.899Z,61.22
2023-08-01T08:52:13.403Z,61.39
2023-08-01T08:55:16.762Z,60.76
2023-08-01T08:58:19.899Z,62.49
2023-08-01T09:01:22.742Z,63.21
2023-08-01T09:04:25.373Z,62.97
2023-08-01T09:07:31.873Z,62.70
2023-08-01T09:10:34.419Z,61.93
2023-08-01T09:13:37.381Z,65.63
2023-08-01T09:16:44.747Z,64.63
2023-08-01T09:19:47.956Z,62.17
2023-08-01T09:22:50.513Z,62.05
2023-08-01T09:25:53.659Z,62.47
2023-08-01T09:28:59.338Z,60.66
2023-08-01T09:32:13.245Z,60.56
2023-08-01T09:35:15.757Z,60.71
2023-08-01T09:38:19.099Z,61.51
2023-08-01T09:41:21.862Z,59.90
2023-08-01T09:44:24.894Z,62.15
2023-08-01T09:47:38.081Z,59.90
2023-08-01T09:50:41.047Z,61.97
2023-08-01T09:53:57.531Z,62.08
2023-08-01T09:57:01.654Z,62.13
2023-08-01T10:00:05.004Z,59.99
2023-08-01T10:03:15.374Z,61.14
2023-08-01T10:06:25.788Z,62.68
2023-08-01T10:09:29.378Z,64.39
2023-08-01T10:12:32.645Z,63.51
2023-08-01T10:15:36.141Z,64.25
2023-08-01T10:18:39.754Z,66.76
2023-08-01T10:21:44.080Z,66.83
2023-08-01T10:24:47.510Z,68.52
2023-08-01T10:28:03.932Z,68.96
2023-08-01T10:31:10.779Z,70.77
2023-08-01T10:34:15.975Z,72.78
2023-08-01T10:37:18.753Z,73.71
2023-08-01T10:40:21.537Z,75.69
2023-08-01T10:43:25.652Z,76.88
2023-08-01T10:46:28.851Z,77.93
2023-08-01T10:49:43.862Z,79.68
2023-08-01T10:52:47.829Z,83.27
2023-08-01T10:55:50.506Z,84.81
2023-08-01T10:58:53.696Z,83.30
2023-08-01T11:02:00.713Z,84.39
2023-08-01T11:05:08.615Z,83.90
2023-08-01T11:08:11.223Z,86.27
2023-08-01T11:11:16.242Z,85.51
2023-08-01T11:14:24.393Z,86.32
2023-08-01T11:17:27.243Z,89.27
2023-08-01T11:20:30.252Z,87.10
2023-08-01T11:23:33.197Z,86.40
2023-08-01T11:26:35.709Z,86.44
2023-08-01T11:29:41.703Z,85.66
2023-08-01T11:32:44.295Z,88.88
2023-08-01T11:35:47.758Z,86.22
2023-08-01T11:38:50.331Z,85.05
2023-08-01T11:41:53.498Z,84.75
2023-08-01T11:45:12.079Z,86.01
2023-08-01T11:48:15.466Z,84.27
2023-08-01T11:51:18.350Z,86.60
2023-08-01T11:54:22.850Z,85.01
2023-08-01T11:57:25.856Z,83.32
2023-08-01T12:00:30.261Z,81.61
2023-08-01T12:03:34.814Z,77.56
2023-08-01T12:06:40.558Z,77.34
2023-08-01T12:09:43.291Z,77.95
2023-08-01T12:12:48.262Z,77.37
2023-08-01T12:15:51.591Z,75.78
2023-08-01T12:19:00.257Z,76.67
2023-08-01T12:22:03.740Z,76.58
2023-08-01T12:25:07.168Z,76.75
2023-08-01T12:28:09.665Z,76.10
2023-08-01T12:31:13.011Z,77.04
2023-08-01T12:34:15.536Z,75.62
2023-08-01T12:37:18.353Z,75.03
2023-08-01T12:40:21.210Z,78.08
2023-08-01T12:43:24.017Z,78.61
2023-08-01T12:46:26.867Z,75.29
2023-08-01T12:49:29.720Z,76.84
2023-08-01T12:52:32.422Z,76.41
2023-08-01T12:55:35.721Z,75.81
2023-08-01T12:58:38.283Z,76.88
2023-08-01T13:01:41.101Z,75.68
2023-08-01T13:04:43.789Z,75.40
2023-08-01T13:07:46.633Z,75.92
2023-08-01T13:10:51.070Z,74.02
2023-08-01T13:13:53.876Z,73.67
2023-08-01T13:16:56.367Z,74.75
2023-08-01T13:19:59.389Z,72.89
2023-08-01T13:23:03.854Z,72.97
2023-08-01T13:26:07.205Z,73.44
2023-08-01T13:29:09.726Z,72.05
2023-08-01T13:32:12.651Z,72.59
2023-08-01T13:35:15.815Z,71.55
2023-08-01T13:38:18.927Z,70.39
2023-08-01T13:41:21.447Z,73.20
2023-08-01T13:44:24.171Z,71.49
2023-08-01T13:47:26.901Z,72.28
2023-08-01T13:50:30.384Z,72.01
2023-08-01T13:53:32.872Z,72.00
2023-08-01T13:56:38.264Z,71.60
2023-08-01T13:59:41.879Z,72.79
2023-08-01T14:02:45.016Z,72.95
2023-08-01T14:05:47.870Z,72.40
2023-08-01T14:08:50.733Z,73.24
2023-08-01T14:11:53.295Z,71.88
2023-08-01T14:14:56.266Z,72.13
2023-08-01T14:17:58.996Z,73.86
2023-08-01T14:21:01.936Z,74.17
2023-08-01T14:24:04.910Z,75.48
2023-08-01T14:27:07.877Z,81.69
2023-08-01T14:30:11.022Z,90.98
2023-08-01T14:33:15.496Z,94.64
2023-08-01T14:36:18.021Z,99.30
2023-08-01T14:39:23.010Z,100.00
2023-08-01T14:42:25.702Z,100.00
2023-08-01T14:45:28.655Z,100.00
2023-08-01T14:48:31.160Z,100.00
2023-08-01T14:51:34.027Z,100.00
2023-08-01T14:54:40.861Z,100.00
2023-08-01T14:57:56.370Z,100.00
2023-08-01T15:00:58.890Z,100.00
2023-08-01T15:04:01.749Z,100.00
2023-08-01T15:07:05.803Z,100.00
2023-08-01T15:10:10.626Z,100.00
2023-08-01T15:13:13.290Z,100.00
2023-08-01T15:16:18.411Z,100.00
2023-08-01T15:19:21.982Z,100.00
2023-08-01T15:22:25.002Z,100.00
2023-08-01T15:25:27.495Z,100.00
2023-08-01T15:28:30.458Z,100.00
2023-08-01T15:31:33.182Z,100.00
2023-08-01T15:34:36.178Z,100.00
2023-08-01T15:37:40.119Z,100.00
2023-08-01T15:40:43.078Z,100.00
2023-08-01T15:43:45.493Z,100.00
2023-08-01T15:46:48.870Z,100.00
2023-08-01T15:49:51.437Z,100.00
2023-08-01T15:52:54.348Z,100.00
2023-08-01T15:56:05.865Z,100.00
2023-08-01T15:59:10.210Z,100.00
2023-08-01T16:02:13.032Z,100.00
2023-08-01T16:05:16.454Z,100.00
2023-08-01T16:08:19.727Z,100.00
2023-08-01T16:11:23.063Z,100.00
2023-08-01T16:14:40.186Z,100.00
2023-08-01T16:17:45.012Z,100.00
2023-08-01T16:20:48.648Z,100.00
2023-08-01T16:23:51.972Z,100.00
2023-08-01T16:26:54.765Z,100.00
2023-08-01T16:29:57.872Z,100.00
2023-08-01T16:33:01.026Z,100.00
2023-08-01T16:36:04.262Z,100.00
2023-08-01T16:39:07.240Z,100.00
2023-08-01T16:42:10.563Z,100.00
2023-08-01T16:45:13.813Z,99.74
2023-08-01T16:48:16.974Z,98.54
2023-08-01T16:51:19.590Z,98.46
2023-08-01T16:54:22.649Z,96.15
2023-08-01T16:57:25.872Z,96.54
2023-08-01T17:00:29.375Z,96.34
2023-08-01T17:03:33.055Z,95.06
2023-08-01T17:06:36.683Z,94.69
2023-08-01T17:09:39.852Z,96.17
2023-08-01T17:12:42.940Z,95.84
2023-08-01T17:15:46.169Z,95.18
2023-08-01T17:18:49.353Z,93.51
2023-08-01T17:21:51.969Z,94.58
2023-08-01T17:24:55.354Z,94.22
2023-08-01T17:27:58.705Z,93.56
2023-08-01T17:31:16.567Z,92.65
2023-08-01T17:34:20.492Z,92.79
2023-08-01T17:37:24.142Z,92.78
2023-08-01T17:40:27.833Z,93.99
2023-08-01T17:43:31.623Z,94.00
2023-08-01T17:46:34.704Z,92.96
2023-08-01T17:49:38.432Z,92.76
2023-08-01T17:52:41.958Z,92.87
2023-08-01T17:55:45.777Z,94.18
2023-08-01T17:58:49.870Z,93.36
2023-08-01T18:01:54.904Z,93.23
2023-08-01T18:04:58.571Z,93.77
2023-08-01T18:08:02.715Z,94.30
2023-08-01T18:11:14.711Z,94.04
2023-08-01T18:14:18.384Z,93.32
2023-08-01T18:17:22.004Z,93.16
2023-08-01T18:20:25.835Z,94.52
2023-08-01T18:23:28.950Z,94.36
2023-08-01T18:26:32.042Z,93.95
2023-08-01T18:29:35.103Z,98.38
2023-08-01T18:32:38.734Z,100.00
2023-08-01T18:35:45.482Z,100.00
2023-08-01T18:38:50.525Z,100.00
2023-08-01T18:41:55.474Z,100.00
2023-08-01T18:44:59.763Z,100.00
2023-08-01T18:48:02.734Z,100.00
2023-08-01T18:51:16.866Z,100.00
2023-08-01T18:54:23.047Z,100.00
2023-08-01T18:57:27.054Z,100.00
2023-08-01T19:00:34.054Z,100.00
2023-08-01T19:03:37.972Z,100.00
2023-08-01T19:06:41.345Z,100.00
2023-08-01T19:09:45.812Z,100.00
2023-08-01T19:12:48.733Z,100.00
2023-08-01T19:15:52.509Z,100.00
2023-08-01T19:18:56.765Z,100.00
2023-08-01T19:22:00.025Z,100.00
2023-08-01T19:25:04.203Z,100.00
2023-08-01T19:28:08.706Z,100.00
2023-08-01T19:31:12.546Z,100.00
2023-08-01T19:34:15.954Z,100.00
2023-08-01T19:37:20.118Z,100.00
2023-08-01T19:40:24.105Z,100.00
2023-08-01T19:43:28.994Z,100.00
2023-08-01T19:46:35.132Z,100.00
2023-08-01T19:49:38.322Z,100.00
2023-08-01T19:52:41.928Z,100.00
2023-08-01T19:55:45.142Z,100.00
2023-08-01T19:58:48.792Z,100.00
2023-08-01T20:01:51.985Z,100.00
2023-08-01T20:04:55.120Z,100.00
2023-08-01T20:07:58.454Z,100.00
2023-08-01T20:11:02.596Z,100.00
2023-08-01T20:14:07.116Z,100.00
2023-08-01T20:17:11.018Z,100.00
2023-08-01T20:20:13.826Z,100.00
2023-08-01T20:23:17.378Z,100.00
2023-08-01T20:26:20.212Z,100.00
2023-08-01T20:29:24.200Z,100.00
2023-08-01T20:32:27.588Z,100.00
2023-08-01T20:35:31.083Z,100.00
2023-08-01T20:38:34.076Z,100.00
2023-08-01T20:41:37.372Z,100.00
2023-08-01T20:44:40.227Z,100.00
2023-08-01T20:47:43.865Z,100.00
2023-08-01T20:50:47.387Z,100.00
2023-08-01T20:53:50.942Z,100.00
2023-08-01T20:56:53.861Z,100.00
2023-08-01T20:59:56.934Z,100.00
2023-08-01T21:02:59.609Z,100.00
2023-08-01T21:06:02.588Z,100.00
2023-08-01T21:09:06.054Z,100.00
2023-08-01T21:12:09.324Z,100.00
2023-08-01T21:15:11.865Z,100.00
2023-08-01T21:18:15.176Z,100.00
2023-08-01T21:21:17.718Z,100.00
2023-08-01T21:24:20.643Z,100.00
2023-08-01T21:27:23.241Z,100.00
2023-08-01T21:30:26.154Z,100.00
2023-08-01T21:33:28.763Z,100.00
2023-08-01T21:36:32.030Z,100.00
2023-08-01T21:39:39.365Z,100.00
2023-08-01T21:42:42.514Z,100.00
2023-08-01T21:45:45.348Z,100.00
2023-08-01T21:48:48.328Z,100.00
2023-08-01T21:51:50.879Z,100.00
2023-08-01T21:54:53.879Z,100.00
2023-08-01T21:57:56.422Z,100.00
2023-08-01T22:00:59.628Z,100.00
2023-08-01T22:04:02.138Z,100.00
2023-08-01T22:07:05.215Z,100.00
2023-08-01T22:10:11.660Z,100.00
2023-08-01T22:13:14.650Z,100.00
2023-08-01T22:16:17.448Z,100.00
2023-08-01T22:19:20.292Z,100.00
2023-08-01T22:22:26.272Z,100.00
2023-08-01T22:25:29.172Z,100.00
2023-08-01T22:28:32.779Z,100.00
2023-08-01T22:31:35.696Z,100.00
2023-08-01T22:34:38.332Z,100.00
2023-08-01T22:37:41.168Z,100.00
2023-08-01T22:40:43.704Z,100.00
2023-08-01T22:43:49.870Z,100.00
2023-08-01T22:46:52.391Z,100.00
2023-08-01T22:50:05.511Z,100.00
2023-08-01T22:53:09.954Z,100.00
2023-08-01T22:56:12.872Z,100.00
2023-08-01T22:59:15.358Z,100.00
2023-08-01T23:02:18.388Z,100.00
2023-08-01T23:05:21.766Z,100.00
2023-08-01T23:08:24.833Z,100.00
2023-08-01T23:11:27.275Z,100.00
2023-08-01T23:14:30.163Z,100.00
2023-08-01T23:17:34.024Z,100.00
2023-08-01T23:20:36.836Z,100.00
2023-08-01T23:23:39.389Z,100.00
2023-08-01T23:26:42.424Z,100.00
2023-08-01T23:29:45.373Z,100.00
2023-08-01T23:32:48.268Z,100.00
2023-08-01T23:35:51.264Z,100.00
2023-08-01T23:38:54.071Z,100.00
2023-08-01T23:41:56.574Z,100.00
2023-08-01T23:44:59.790Z,100.00
2023-08-01T23:48:02.491Z,100.00
2023-08-01T23:51:05.418Z,100.00
2023-08-01T23:54:08.090Z,100.00
2023-08-01T23:57:10.915Z,100.00
